sensor_id;sensor_type;location;lat;lon;timestamp;pressure;altitude;pressure_sealevel;temperature;humidity
5298;BME280;14738;42.668;23.250;2023-05-12T00:01:38;48433.97;;;-141.90;96.11
5298;BME280;14738;42.668;23.250;2023-05-12T00:04:04;48432.00;;;-141.90;95.85
5298;BME280;14738;42.668;23.250;2023-05-12T00:06:30;48441.91;;;-141.90;96.24
5298;BME280;14738;42.668;23.250;2023-05-12T00:08:56;48443.91;;;-141.90;95.04
5298;BME280;14738;42.668;23.250;2023-05-12T00:11:21;48457.81;;;-141.90;94.50
5298;BME280;14738;42.668;23.250;2023-05-12T00:13:47;48451.84;;;-141.90;94.24
5298;BME280;14738;42.668;23.250;2023-05-12T00:16:12;48469.72;;;-141.90;93.46
5298;BME280;14738;42.668;23.250;2023-05-12T00:18:39;48437.94;;;-141.90;94.06
5298;BME280;14738;42.668;23.250;2023-05-12T00:21:05;48465.75;;;-141.90;93.83
5298;BME280;14738;42.668;23.250;2023-05-12T00:23:32;48439.94;;;-141.90;92.27
5298;BME280;14738;42.668;23.250;2023-05-12T00:25:58;48443.91;;;-141.90;95.57
5298;BME280;14738;42.668;23.250;2023-05-12T00:28:23;48461.78;;;-141.90;93.47
5298;BME280;14738;42.668;23.250;2023-05-12T00:30:49;48465.75;;;-141.90;94.57
5298;BME280;14738;42.668;23.250;2023-05-12T00:33:14;48439.94;;;-141.90;95.69
5298;BME280;14738;42.668;23.250;2023-05-12T00:35:41;48461.78;;;-141.90;94.33
5298;BME280;14738;42.668;23.250;2023-05-12T00:38:06;48453.81;;;-141.90;95.20
5298;BME280;14738;42.668;23.250;2023-05-12T00:40:32;48465.75;;;-141.90;96.03
5298;BME280;14738;42.668;23.250;2023-05-12T00:42:57;48465.75;;;-141.90;97.09
5298;BME280;14738;42.668;23.250;2023-05-12T00:45:23;48453.81;;;-141.90;99.04
5298;BME280;14738;42.668;23.250;2023-05-12T00:47:50;48469.72;;;-141.90;98.10
5298;BME280;14738;42.668;23.250;2023-05-12T00:50:16;48449.84;;;-141.90;100.00
5298;BME280;14738;42.668;23.250;2023-05-12T00:52:42;48445.88;;;-141.90;100.00
5298;BME280;14738;42.668;23.250;2023-05-12T00:55:08;48430.00;;;-141.90;100.00
5298;BME280;14738;42.668;23.250;2023-05-12T00:57:34;48473.69;;;-141.90;100.00
5298;BME280;14738;42.668;23.250;2023-05-12T00:59:59;48437.94;;;-141.90;100.00
5298;BME280;14738;42.668;23.250;2023-05-12T01:02:25;48457.81;;;-141.90;100.00
5298;BME280;14738;42.668;23.250;2023-05-12T01:04:50;48439.94;;;-141.90;100.00
5298;BME280;14738;42.668;23.250;2023-05-12T01:07:24;48447.88;;;-141.90;100.00
5298;BME280;14738;42.668;23.250;2023-05-12T01:09:54;48439.94;;;-141.90;100.00
5298;BME280;14738;42.668;23.250;2023-05-12T01:12:21;48443.91;;;-141.90;100.00
5298;BME280;14738;42.668;23.250;2023-05-12T01:14:47;48445.88;;;-141.90;100.00
5298;BME280;14738;42.668;23.250;2023-05-12T01:17:12;48433.97;;;-141.90;100.00
5298;BME280;14738;42.668;23.250;2023-05-12T01:19:47;48483.59;;;-141.90;100.00
5298;BME280;14738;42.668;23.250;2023-05-12T01:22:14;48465.75;;;-141.90;100.00
5298;BME280;14738;42.668;23.250;2023-05-12T01:25:00;48449.84;;;-141.90;100.00
5298;BME280;14738;42.668;23.250;2023-05-12T01:27:27;48447.88;;;-141.90;100.00
5298;BME280;14738;42.668;23.250;2023-05-12T01:29:55;48461.78;;;-141.90;100.00
5298;BME280;14738;42.668;23.250;2023-05-12T01:32:22;48485.59;;;-141.90;100.00
5298;BME280;14738;42.668;23.250;2023-05-12T01:34:49;48447.88;;;-141.90;100.00
5298;BME280;14738;42.668;23.250;2023-05-12T01:37:15;48447.88;;;-141.90;100.00
5298;BME280;14738;42.668;23.250;2023-05-12T01:39:40;48451.84;;;-141.90;100.00
5298;BME280;14738;42.668;23.250;2023-05-12T01:42:06;48457.81;;;-141.90;100.00
5298;BME280;14738;42.668;23.250;2023-05-12T01:44:31;48475.66;;;-141.90;100.00
5298;BME280;14738;42.668;23.250;2023-05-12T01:46:57;48449.84;;;-141.90;100.00
5298;BME280;14738;42.668;23.250;2023-05-12T01:49:22;48441.91;;;-141.90;100.00
5298;BME280;14738;42.668;23.250;2023-05-12T01:51:47;48477.66;;;-141.90;100.00
5298;BME280;14738;42.668;23.250;2023-05-12T01:54:13;48485.59;;;-141.90;100.00
5298;BME280;14738;42.668;23.250;2023-05-12T01:56:38;48461.78;;;-141.90;100.00
5298;BME280;14738;42.668;23.250;2023-05-12T01:59:04;48477.66;;;-141.90;100.00
5298;BME280;14738;42.668;23.250;2023-05-12T02:01:29;48447.88;;;-141.90;100.00
5298;BME280;14738;42.668;23.250;2023-05-12T02:03:56;48441.91;;;-141.90;100.00
5298;BME280;14738;42.668;23.250;2023-05-12T02:06:22;48465.75;;;-141.90;100.00
5298;BME280;14738;42.668;23.250;2023-05-12T02:08:48;48467.72;;;-141.90;100.00
5298;BME280;14738;42.668;23.250;2023-05-12T02:11:13;48473.69;;;-141.90;100.00
5298;BME280;14738;42.668;23.250;2023-05-12T02:13:39;48457.81;;;-141.90;100.00
5298;BME280;14738;42.668;23.250;2023-05-12T02:16:05;48475.66;;;-141.90;100.00
5298;BME280;14738;42.668;23.250;2023-05-12T02:18:31;48471.69;;;-141.90;100.00
5298;BME280;14738;42.668;23.250;2023-05-12T02:20:56;48465.75;;;-141.90;100.00
5298;BME280;14738;42.668;23.250;2023-05-12T02:23:21;48459.78;;;-141.90;100.00
5298;BME280;14738;42.668;23.250;2023-05-12T02:25:47;48469.72;;;-141.90;100.00
5298;BME280;14738;42.668;23.250;2023-05-12T02:28:13;48481.63;;;-141.90;100.00
5298;BME280;14738;42.668;23.250;2023-05-12T02:30:45;48465.75;;;-141.90;100.00
5298;BME280;14738;42.668;23.250;2023-05-12T02:33:16;48441.91;;;-141.90;100.00
5298;BME280;14738;42.668;23.250;2023-05-12T02:35:42;48453.81;;;-141.90;100.00
5298;BME280;14738;42.668;23.250;2023-05-12T02:38:08;48469.72;;;-141.90;100.00
5298;BME280;14738;42.668;23.250;2023-05-12T02:40:33;48465.75;;;-141.90;100.00
5298;BME280;14738;42.668;23.250;2023-05-12T02:42:58;48463.75;;;-141.90;100.00
5298;BME280;14738;42.668;23.250;2023-05-12T02:45:24;48477.66;;;-141.90;100.00
5298;BME280;14738;42.668;23.250;2023-05-12T02:47:49;48481.63;;;-141.90;100.00
5298;BME280;14738;42.668;23.250;2023-05-12T02:50:15;48475.66;;;-141.90;100.00
5298;BME280;14738;42.668;23.250;2023-05-12T02:52:40;48477.66;;;-141.90;100.00
5298;BME280;14738;42.668;23.250;2023-05-12T02:55:06;48473.69;;;-141.90;100.00
5298;BME280;14738;42.668;23.250;2023-05-12T02:57:32;48481.63;;;-141.90;100.00
5298;BME280;14738;42.668;23.250;2023-05-12T02:59:59;48483.59;;;-141.90;100.00
5298;BME280;14738;42.668;23.250;2023-05-12T03:02:24;48469.72;;;-141.90;100.00
5298;BME280;14738;42.668;23.250;2023-05-12T03:04:49;48449.84;;;-141.90;100.00
5298;BME280;14738;42.668;23.250;2023-05-12T03:07:15;48481.63;;;-141.90;100.00
5298;BME280;14738;42.668;23.250;2023-05-12T03:09:40;48463.75;;;-141.90;100.00
5298;BME280;14738;42.668;23.250;2023-05-12T03:12:06;48463.75;;;-141.90;100.00
5298;BME280;14738;42.668;23.250;2023-05-12T03:14:32;48497.50;;;-141.90;100.00
5298;BME280;14738;42.668;23.250;2023-05-12T03:16:57;48439.94;;;-141.90;100.00
5298;BME280;14738;42.668;23.250;2023-05-12T03:19:22;48467.72;;;-141.90;100.00
5298;BME280;14738;42.668;23.250;2023-05-12T03:21:48;48475.66;;;-141.90;100.00
5298;BME280;14738;42.668;23.250;2023-05-12T03:24:13;48469.72;;;-141.90;100.00
5298;BME280;14738;42.668;23.250;2023-05-12T03:26:39;48461.78;;;-141.90;100.00
5298;BME280;14738;42.668;23.250;2023-05-12T03:29:05;48467.72;;;-141.90;100.00
5298;BME280;14738;42.668;23.250;2023-05-12T03:31:30;48461.78;;;-141.90;100.00
5298;BME280;14738;42.668;23.250;2023-05-12T03:33:55;48465.75;;;-141.90;100.00
5298;BME280;14738;42.668;23.250;2023-05-12T03:36:21;48463.75;;;-141.90;100.00
5298;BME280;14738;42.668;23.250;2023-05-12T03:38:47;48435.97;;;-141.90;100.00
5298;BME280;14738;42.668;23.250;2023-05-12T03:41:13;48493.53;;;-141.90;100.00
5298;BME280;14738;42.668;23.250;2023-05-12T03:43:38;48463.75;;;-141.90;100.00
5298;BME280;14738;42.668;23.250;2023-05-12T03:46:05;48473.69;;;-141.90;100.00
5298;BME280;14738;42.668;23.250;2023-05-12T03:48:30;48479.63;;;-141.90;100.00
5298;BME280;14738;42.668;23.250;2023-05-12T03:50:55;48475.66;;;-141.90;100.00
5298;BME280;14738;42.668;23.250;2023-05-12T03:53:21;48469.72;;;-141.90;100.00
5298;BME280;14738;42.668;23.250;2023-05-12T03:55:46;48473.69;;;-141.90;100.00
5298;BME280;14738;42.668;23.250;2023-05-12T03:58:12;48475.66;;;-141.90;100.00
5298;BME280;14738;42.668;23.250;2023-05-12T04:00:37;48485.59;;;-141.90;100.00
5298;BME280;14738;42.668;23.250;2023-05-12T04:03:02;48513.38;;;-141.90;100.00
5298;BME280;14738;42.668;23.250;2023-05-12T04:05:28;48477.66;;;-141.90;100.00
5298;BME280;14738;42.668;23.250;2023-05-12T04:07:53;48441.91;;;-141.90;100.00
5298;BME280;14738;42.668;23.250;2023-05-12T04:10:19;48481.63;;;-141.90;100.00
5298;BME280;14738;42.668;23.250;2023-05-12T04:12:44;48457.81;;;-141.90;100.00
5298;BME280;14738;42.668;23.250;2023-05-12T04:15:10;48467.72;;;-141.90;100.00
5298;BME280;14738;42.668;23.250;2023-05-12T04:17:35;48455.81;;;-141.90;100.00
5298;BME280;14738;42.668;23.250;2023-05-12T04:20:01;48449.84;;;-141.90;100.00
5298;BME280;14738;42.668;23.250;2023-05-12T04:22:26;48481.63;;;-141.90;100.00
5298;BME280;14738;42.668;23.250;2023-05-12T04:24:54;48463.75;;;-141.90;100.00
5298;BME280;14738;42.668;23.250;2023-05-12T04:27:19;48461.78;;;-141.90;100.00
5298;BME280;14738;42.668;23.250;2023-05-12T04:29:45;48465.75;;;-141.90;100.00
5298;BME280;14738;42.668;23.250;2023-05-12T04:32:10;48453.81;;;-141.90;100.00
5298;BME280;14738;42.668;23.250;2023-05-12T04:34:35;48447.88;;;-141.90;100.00
5298;BME280;14738;42.668;23.250;2023-05-12T04:37:01;48479.63;;;-141.90;100.00
5298;BME280;14738;42.668;23.250;2023-05-12T04:39:26;48477.66;;;-141.90;100.00
5298;BME280;14738;42.668;23.250;2023-05-12T04:41:55;48473.69;;;-141.90;100.00
5298;BME280;14738;42.668;23.250;2023-05-12T04:44:20;48457.81;;;-141.90;100.00
5298;BME280;14738;42.668;23.250;2023-05-12T04:46:46;48453.81;;;-141.90;100.00
5298;BME280;14738;42.668;23.250;2023-05-12T04:49:12;48463.75;;;-141.90;100.00
5298;BME280;14738;42.668;23.250;2023-05-12T04:51:37;48459.78;;;-141.90;100.00
5298;BME280;14738;42.668;23.250;2023-05-12T04:54:08;48437.94;;;-141.90;100.00
5298;BME280;14738;42.668;23.250;2023-05-12T04:56:34;48463.75;;;-141.90;100.00
5298;BME280;14738;42.668;23.250;2023-05-12T04:58:59;48477.66;;;-141.90;100.00
5298;BME280;14738;42.668;23.250;2023-05-12T05:01:25;48461.78;;;-141.90;100.00
5298;BME280;14738;42.668;23.250;2023-05-12T05:03:50;48473.69;;;-141.90;100.00
5298;BME280;14738;42.668;23.250;2023-05-12T05:06:16;48457.81;;;-141.90;100.00
5298;BME280;14738;42.668;23.250;2023-05-12T05:08:41;48483.59;;;-141.90;100.00
5298;BME280;14738;42.668;23.250;2023-05-12T05:11:07;48481.63;;;-141.90;100.00
5298;BME280;14738;42.668;23.250;2023-05-12T05:13:32;48477.66;;;-141.90;100.00
5298;BME280;14738;42.668;23.250;2023-05-12T05:15:58;48447.88;;;-141.90;100.00
5298;BME280;14738;42.668;23.250;2023-05-12T05:18:23;48473.69;;;-141.90;100.00
5298;BME280;14738;42.668;23.250;2023-05-12T05:20:49;48469.72;;;-141.90;100.00
5298;BME280;14738;42.668;23.250;2023-05-12T05:23:14;48493.53;;;-141.90;100.00
5298;BME280;14738;42.668;23.250;2023-05-12T05:25:39;48453.81;;;-141.90;100.00
5298;BME280;14738;42.668;23.250;2023-05-12T05:28:05;48461.78;;;-141.90;100.00
5298;BME280;14738;42.668;23.250;2023-05-12T05:30:30;48455.81;;;-141.90;100.00
5298;BME280;14738;42.668;23.250;2023-05-12T05:32:56;48455.81;;;-141.90;100.00
5298;BME280;14738;42.668;23.250;2023-05-12T05:35:21;48441.91;;;-141.90;100.00
5298;BME280;14738;42.668;23.250;2023-05-12T05:37:47;48473.69;;;-141.90;100.00
5298;BME280;14738;42.668;23.250;2023-05-12T05:40:12;48485.59;;;-141.90;100.00
5298;BME280;14738;42.668;23.250;2023-05-12T05:42:38;48469.72;;;-141.90;100.00
5298;BME280;14738;42.668;23.250;2023-05-12T05:45:03;48467.72;;;-141.90;100.00
5298;BME280;14738;42.668;23.250;2023-05-12T05:47:29;48465.75;;;-141.90;100.00
5298;BME280;14738;42.668;23.250;2023-05-12T05:49:56;48497.50;;;-141.90;100.00
5298;BME280;14738;42.668;23.250;2023-05-12T05:52:21;48471.69;;;-141.90;100.00
5298;BME280;14738;42.668;23.250;2023-05-12T05:54:48;48491.56;;;-141.90;100.00
5298;BME280;14738;42.668;23.250;2023-05-12T05:57:14;48461.78;;;-141.90;100.00
5298;BME280;14738;42.668;23.250;2023-05-12T05:59:39;48457.81;;;-141.90;100.00
5298;BME280;14738;42.668;23.250;2023-05-12T06:02:05;48487.56;;;-141.90;100.00
5298;BME280;14738;42.668;23.250;2023-05-12T06:04:31;48433.97;;;-141.90;100.00
5298;BME280;14738;42.668;23.250;2023-05-12T06:06:56;48453.81;;;-141.90;100.00
5298;BME280;14738;42.668;23.250;2023-05-12T06:09:21;48475.66;;;-141.90;100.00
5298;BME280;14738;42.668;23.250;2023-05-12T06:11:47;48471.69;;;-141.90;100.00
5298;BME280;14738;42.668;23.250;2023-05-12T06:14:12;48445.88;;;-141.90;100.00
5298;BME280;14738;42.668;23.250;2023-05-12T06:16:38;48477.66;;;-141.90;100.00
5298;BME280;14738;42.668;23.250;2023-05-12T06:19:03;48467.72;;;-141.90;100.00
5298;BME280;14738;42.668;23.250;2023-05-12T06:21:29;48426.03;;;-141.90;100.00
5298;BME280;14738;42.668;23.250;2023-05-12T06:23:54;48469.72;;;-141.90;100.00
5298;BME280;14738;42.668;23.250;2023-05-12T06:26:21;48467.72;;;-141.90;100.00
5298;BME280;14738;42.668;23.250;2023-05-12T06:28:46;48467.72;;;-141.90;100.00
5298;BME280;14738;42.668;23.250;2023-05-12T06:31:11;48461.78;;;-141.90;100.00
5298;BME280;14738;42.668;23.250;2023-05-12T06:33:37;48457.81;;;-141.90;100.00
5298;BME280;14738;42.668;23.250;2023-05-12T06:36:02;48447.88;;;-141.90;100.00
5298;BME280;14738;42.668;23.250;2023-05-12T06:38:28;48453.81;;;-141.90;100.00
5298;BME280;14738;42.668;23.250;2023-05-12T06:40:53;48457.81;;;-141.90;100.00
5298;BME280;14738;42.668;23.250;2023-05-12T06:43:18;48469.72;;;-141.90;100.00
5298;BME280;14738;42.668;23.250;2023-05-12T06:45:44;48459.78;;;-141.90;100.00
5298;BME280;14738;42.668;23.250;2023-05-12T06:48:09;48435.97;;;-141.90;100.00
5298;BME280;14738;42.668;23.250;2023-05-12T06:50:35;48428.03;;;-141.90;100.00
5298;BME280;14738;42.668;23.250;2023-05-12T06:53:01;48501.47;;;-141.90;100.00
5298;BME280;14738;42.668;23.250;2023-05-12T06:55:26;48443.91;;;-141.90;100.00
5298;BME280;14738;42.668;23.250;2023-05-12T06:57:52;48455.81;;;-141.90;100.00
5298;BME280;14738;42.668;23.250;2023-05-12T07:00:23;48449.84;;;-141.90;100.00
5298;BME280;14738;42.668;23.250;2023-05-12T07:02:48;48473.69;;;-141.90;100.00
5298;BME280;14738;42.668;23.250;2023-05-12T07:05:14;48467.72;;;-141.90;100.00
5298;BME280;14738;42.668;23.250;2023-05-12T07:07:39;48449.84;;;-141.90;100.00
5298;BME280;14738;42.668;23.250;2023-05-12T07:10:06;48443.91;;;-141.90;100.00
5298;BME280;14738;42.668;23.250;2023-05-12T07:12:32;48445.88;;;-141.90;100.00
5298;BME280;14738;42.668;23.250;2023-05-12T07:14:57;48432.00;;;-141.90;100.00
5298;BME280;14738;42.668;23.250;2023-05-12T07:17:22;48453.81;;;-141.90;100.00
5298;BME280;14738;42.668;23.250;2023-05-12T07:19:48;48489.56;;;-141.90;100.00
5298;BME280;14738;42.668;23.250;2023-05-12T07:22:13;48465.75;;;-141.90;100.00
5298;BME280;14738;42.668;23.250;2023-05-12T07:24:39;48451.84;;;-141.90;100.00
5298;BME280;14738;42.668;23.250;2023-05-12T07:27:04;48430.00;;;-141.90;100.00
5298;BME280;14738;42.668;23.250;2023-05-12T07:29:30;48420.09;;;-141.90;100.00
5298;BME280;14738;42.668;23.250;2023-05-12T07:31:55;48471.69;;;-141.90;100.00
5298;BME280;14738;42.668;23.250;2023-05-12T07:34:21;48461.78;;;-141.90;100.00
5298;BME280;14738;42.668;23.250;2023-05-12T07:36:46;48461.78;;;-141.90;100.00
5298;BME280;14738;42.668;23.250;2023-05-12T07:39:11;48465.75;;;-141.90;100.00
5298;BME280;14738;42.668;23.250;2023-05-12T07:41:39;48451.84;;;-141.90;100.00
5298;BME280;14738;42.668;23.250;2023-05-12T07:44:05;48445.88;;;-141.90;100.00
5298;BME280;14738;42.668;23.250;2023-05-12T07:46:31;48461.78;;;-141.90;100.00
5298;BME280;14738;42.668;23.250;2023-05-12T07:48:56;48424.06;;;-141.90;100.00
5298;BME280;14738;42.668;23.250;2023-05-12T07:51:22;48443.91;;;-141.90;100.00
5298;BME280;14738;42.668;23.250;2023-05-12T07:53:47;48439.94;;;-141.90;100.00
5298;BME280;14738;42.668;23.250;2023-05-12T07:56:13;48457.81;;;-141.90;100.00
5298;BME280;14738;42.668;23.250;2023-05-12T07:58:38;48459.78;;;-141.90;100.00
5298;BME280;14738;42.668;23.250;2023-05-12T08:01:04;48453.81;;;-141.90;100.00
5298;BME280;14738;42.668;23.250;2023-05-12T08:03:31;48443.91;;;-141.90;100.00
5298;BME280;14738;42.668;23.250;2023-05-12T08:05:57;48449.84;;;-141.90;100.00
5298;BME280;14738;42.668;23.250;2023-05-12T08:08:22;48441.91;;;-141.90;100.00
5298;BME280;14738;42.668;23.250;2023-05-12T08:10:49;48453.81;;;-141.90;100.00
5298;BME280;14738;42.668;23.250;2023-05-12T08:13:14;48445.88;;;-141.90;100.00
5298;BME280;14738;42.668;23.250;2023-05-12T08:15:40;48441.91;;;-141.90;100.00
5298;BME280;14738;42.668;23.250;2023-05-12T08:18:05;48430.00;;;-141.90;100.00
5298;BME280;14738;42.668;23.250;2023-05-12T08:20:30;48437.94;;;-141.90;100.00
5298;BME280;14738;42.668;23.250;2023-05-12T08:22:56;48451.84;;;-141.90;100.00
5298;BME280;14738;42.668;23.250;2023-05-12T08:25:21;48441.91;;;-141.90;100.00
5298;BME280;14738;42.668;23.250;2023-05-12T08:27:47;48465.75;;;-141.90;100.00
5298;BME280;14738;42.668;23.250;2023-05-12T08:30:13;48461.78;;;-141.90;100.00
5298;BME280;14738;42.668;23.250;2023-05-12T08:32:38;48451.84;;;-141.90;100.00
5298;BME280;14738;42.668;23.250;2023-05-12T08:35:04;48461.78;;;-141.90;100.00
5298;BME280;14738;42.668;23.250;2023-05-12T08:37:30;48441.91;;;-141.90;100.00
5298;BME280;14738;42.668;23.250;2023-05-12T08:39:56;48459.78;;;-141.90;100.00
5298;BME280;14738;42.668;23.250;2023-05-12T08:42:41;48465.75;;;-141.90;100.00
5298;BME280;14738;42.668;23.250;2023-05-12T08:45:09;48449.84;;;-141.90;100.00
5298;BME280;14738;42.668;23.250;2023-05-12T08:47:36;48457.81;;;-141.90;100.00
5298;BME280;14738;42.668;23.250;2023-05-12T08:50:02;48449.84;;;-141.90;100.00
5298;BME280;14738;42.668;23.250;2023-05-12T08:52:31;48412.13;;;-141.90;100.00
5298;BME280;14738;42.668;23.250;2023-05-12T08:54:57;48441.91;;;-141.90;100.00
5298;BME280;14738;42.668;23.250;2023-05-12T08:57:25;48451.84;;;-141.90;100.00
5298;BME280;14738;42.668;23.250;2023-05-12T08:59:55;48457.81;;;-141.90;100.00
5298;BME280;14738;42.668;23.250;2023-05-12T09:02:21;48432.00;;;-141.90;100.00
5298;BME280;14738;42.668;23.250;2023-05-12T09:04:49;48435.97;;;-141.90;100.00
5298;BME280;14738;42.668;23.250;2023-05-12T09:07:15;48441.91;;;-141.90;100.00
5298;BME280;14738;42.668;23.250;2023-05-12T09:09:43;48424.06;;;-141.90;100.00
5298;BME280;14738;42.668;23.250;2023-05-12T09:12:11;48445.88;;;-141.90;100.00
5298;BME280;14738;42.668;23.250;2023-05-12T09:14:39;48451.84;;;-141.90;100.00
5298;BME280;14738;42.668;23.250;2023-05-12T09:17:06;48433.97;;;-141.90;100.00
5298;BME280;14738;42.668;23.250;2023-05-12T09:19:31;48433.97;;;-141.90;100.00
5298;BME280;14738;42.668;23.250;2023-05-12T09:21:59;48426.03;;;-141.90;100.00
5298;BME280;14738;42.668;23.250;2023-05-12T09:24:37;48433.97;;;-141.90;100.00
5298;BME280;14738;42.668;23.250;2023-05-12T09:27:04;48447.88;;;-141.90;100.00
5298;BME280;14738;42.668;23.250;2023-05-12T09:29:30;48457.81;;;-141.90;100.00
5298;BME280;14738;42.668;23.250;2023-05-12T09:31:59;48461.78;;;-141.90;100.00
5298;BME280;14738;42.668;23.250;2023-05-12T09:34:30;48432.00;;;-141.90;44.89
5298;BME280;14738;42.668;23.250;2023-05-12T09:37:01;48445.88;;;-141.90;46.33
5298;BME280;14738;42.668;23.250;2023-05-12T09:39:27;48441.91;;;-141.90;45.61
5298;BME280;14738;42.668;23.250;2023-05-12T09:41:53;48437.94;;;-141.90;45.56
5298;BME280;14738;42.668;23.250;2023-05-12T09:44:19;48432.00;;;-141.90;46.00
5298;BME280;14738;42.668;23.250;2023-05-12T09:46:45;48465.75;;;-141.90;46.54
5298;BME280;14738;42.668;23.250;2023-05-12T09:49:11;48435.97;;;-141.90;46.22
5298;BME280;14738;42.668;23.250;2023-05-12T09:51:37;48449.84;;;-141.90;45.92
5298;BME280;14738;42.668;23.250;2023-05-12T09:54:02;48461.78;;;-141.90;44.66
5298;BME280;14738;42.668;23.250;2023-05-12T09:56:29;48449.84;;;-141.90;44.53
5298;BME280;14738;42.668;23.250;2023-05-12T09:58:57;48451.84;;;-141.90;44.42
5298;BME280;14738;42.668;23.250;2023-05-12T10:01:23;48433.97;;;-141.90;44.26
5298;BME280;14738;42.668;23.250;2023-05-12T10:03:53;48402.22;;;-141.90;45.10
5298;BME280;14738;42.668;23.250;2023-05-12T10:06:29;48449.84;;;-141.90;44.79
5298;BME280;14738;42.668;23.250;2023-05-12T10:09:22;48465.75;;;-141.90;44.46
5298;BME280;14738;42.668;23.250;2023-05-12T10:11:49;48449.84;;;-141.90;43.90
5298;BME280;14738;42.668;23.250;2023-05-12T10:14:16;48435.97;;;-141.90;43.17
5298;BME280;14738;42.668;23.250;2023-05-12T10:16:44;48449.84;;;-141.90;43.13
5298;BME280;14738;42.668;23.250;2023-05-12T10:19:10;48428.03;;;-141.90;43.50
5298;BME280;14738;42.668;23.250;2023-05-12T10:21:37;48467.72;;;-141.90;43.25
5298;BME280;14738;42.668;23.250;2023-05-12T10:24:03;48445.88;;;-141.90;43.04
5298;BME280;14738;42.668;23.250;2023-05-12T10:26:32;48457.81;;;-141.90;43.35
5298;BME280;14738;42.668;23.250;2023-05-12T10:29:01;48473.69;;;-141.90;42.26
5298;BME280;14738;42.668;23.250;2023-05-12T10:31:26;48416.09;;;-141.90;42.43
5298;BME280;14738;42.668;23.250;2023-05-12T10:34:00;48402.22;;;-141.90;40.53
5298;BME280;14738;42.668;23.250;2023-05-12T10:36:26;48441.91;;;-141.90;41.21
5298;BME280;14738;42.668;23.250;2023-05-12T10:38:52;48435.97;;;-141.90;42.92
5298;BME280;14738;42.668;23.250;2023-05-12T10:41:32;48469.72;;;-141.90;41.56
5298;BME280;14738;42.668;23.250;2023-05-12T10:43:58;48481.63;;;-141.90;41.17
5298;BME280;14738;42.668;23.250;2023-05-12T10:46:24;48449.84;;;-141.90;41.61
5298;BME280;14738;42.668;23.250;2023-05-12T10:48:59;48441.91;;;-141.90;41.30
5298;BME280;14738;42.668;23.250;2023-05-12T10:51:44;48449.84;;;-141.90;40.09
5298;BME280;14738;42.668;23.250;2023-05-12T10:54:17;48451.84;;;-141.90;41.61
5298;BME280;14738;42.668;23.250;2023-05-12T10:56:43;48441.91;;;-141.90;40.89
5298;BME280;14738;42.668;23.250;2023-05-12T10:59:22;48443.91;;;-141.90;41.14
5298;BME280;14738;42.668;23.250;2023-05-12T11:02:23;48435.97;;;-141.90;40.65
5298;BME280;14738;42.668;23.250;2023-05-12T11:04:58;48461.78;;;-141.90;42.83
5298;BME280;14738;42.668;23.250;2023-05-12T11:07:30;48443.91;;;-141.90;41.87
5298;BME280;14738;42.668;23.250;2023-05-12T11:09:58;48449.84;;;-141.90;41.24
5298;BME280;14738;42.668;23.250;2023-05-12T11:12:25;48430.00;;;-141.90;40.74
5298;BME280;14738;42.668;23.250;2023-05-12T11:14:51;48473.69;;;-141.90;40.16
5298;BME280;14738;42.668;23.250;2023-05-12T11:17:22;48475.66;;;-141.90;41.06
5298;BME280;14738;42.668;23.250;2023-05-12T11:19:48;48441.91;;;-141.90;41.61
5298;BME280;14738;42.668;23.250;2023-05-12T11:22:19;48461.78;;;-141.90;41.74
5298;BME280;14738;42.668;23.250;2023-05-12T11:24:45;48430.00;;;-141.90;41.93
5298;BME280;14738;42.668;23.250;2023-05-12T11:27:14;48449.84;;;-141.90;42.21
5298;BME280;14738;42.668;23.250;2023-05-12T11:29:41;48430.00;;;-141.90;40.99
5298;BME280;14738;42.668;23.250;2023-05-12T11:32:10;48457.81;;;-141.90;40.64
5298;BME280;14738;42.668;23.250;2023-05-12T11:34:37;48461.78;;;-141.90;41.28
5298;BME280;14738;42.668;23.250;2023-05-12T11:37:03;48443.91;;;-141.90;41.53
5298;BME280;14738;42.668;23.250;2023-05-12T11:39:29;48445.88;;;-141.90;41.99
5298;BME280;14738;42.668;23.250;2023-05-12T11:42:01;48443.91;;;-141.90;41.51
5298;BME280;14738;42.668;23.250;2023-05-12T11:44:28;48430.00;;;-141.90;41.86
5298;BME280;14738;42.668;23.250;2023-05-12T11:46:58;48439.94;;;-141.90;41.48
5298;BME280;14738;42.668;23.250;2023-05-12T11:49:25;48453.81;;;-141.90;40.64
5298;BME280;14738;42.668;23.250;2023-05-12T11:51:56;48433.97;;;-141.90;40.82
5298;BME280;14738;42.668;23.250;2023-05-12T11:54:22;48465.75;;;-141.90;41.42
5298;BME280;14738;42.668;23.250;2023-05-12T11:56:49;48449.84;;;-141.90;41.37
5298;BME280;14738;42.668;23.250;2023-05-12T11:59:31;48430.00;;;-141.90;41.63
5298;BME280;14738;42.668;23.250;2023-05-12T12:01:58;48449.84;;;-141.90;41.82
5298;BME280;14738;42.668;23.250;2023-05-12T12:04:39;48465.75;;;-141.90;41.61
5298;BME280;14738;42.668;23.250;2023-05-12T12:07:06;48422.06;;;-141.90;41.27
5298;BME280;14738;42.668;23.250;2023-05-12T12:09:37;48469.72;;;-141.90;40.74
5298;BME280;14738;42.668;23.250;2023-05-12T12:12:05;48447.88;;;-141.90;40.86
5298;BME280;14738;42.668;23.250;2023-05-12T12:14:32;48437.94;;;-141.90;40.71
5298;BME280;14738;42.668;23.250;2023-05-12T12:16:58;48433.97;;;-141.90;41.80
5298;BME280;14738;42.668;23.250;2023-05-12T12:19:24;48445.88;;;-141.90;41.06
5298;BME280;14738;42.668;23.250;2023-05-12T12:21:50;48441.91;;;-141.90;40.05
5298;BME280;14738;42.668;23.250;2023-05-12T12:24:16;48465.75;;;-141.90;40.44
5298;BME280;14738;42.668;23.250;2023-05-12T12:26:41;48428.03;;;-141.90;40.57
5298;BME280;14738;42.668;23.250;2023-05-12T12:29:07;48489.56;;;-141.90;40.25
5298;BME280;14738;42.668;23.250;2023-05-12T12:31:32;48465.75;;;-141.90;40.73